Time;durP1;ratioP1;P1;durP2;ratioP2;P2;SDS_P1;SDS_P2;PMS_P1;PMS_P2;Temp;Humidity;BMP_temperature;BMP_pressure;BME280_temperature;BME280_humidity;BME280_pressure;Samples;Min_cycle;Max_cycle;Signal;HPM_P1;HPM_P2
2021/03/08 00:05:05;;;;;;;13.27;6.53;;;-2.60;78.40;;;;;;4881119;29;20048;-87
2021/03/08 00:14:54;;;;;;;16.45;6.70;;;-2.70;78.50;;;;;;4880816;29;20093;-87
2021/03/08 00:20:42;;;;;;;15.75;6.60;;;-2.80;78.60;;;;;;4880741;29;20108;-87
2021/03/08 00:26:31;;;;;;;15.38;6.55;;;-2.80;78.50;;;;;;4880480;29;20393;-86
2021/03/08 00:32:19;;;;;;;16.70;7.28;;;-2.90;78.50;;;;;;4881071;29;20516;-87
2021/03/08 00:38:08;;;;;;;14.38;6.70;;;-2.90;78.50;;;;;;4883172;29;20027;-88
2021/03/08 00:43:56;;;;;;;18.13;6.95;;;-3.00;78.60;;;;;;4880438;29;20085;-89
2021/03/08 00:49:44;;;;;;;15.75;6.25;;;-3.00;78.50;;;;;;4880590;29;20052;-89
2021/03/08 00:55:33;;;;;;;16.20;6.00;;;-3.10;78.50;;;;;;4880792;29;20068;-89
2021/03/08 01:01:23;;;;;;;14.13;6.07;;;-3.10;78.50;;;;;;4881361;29;20092;-89
2021/03/08 01:07:11;;;;;;;17.25;6.95;;;-3.20;78.40;;;;;;4884427;29;20044;-89
2021/03/08 01:16:53;;;;;;;17.10;7.82;;;-3.20;78.30;;;;;;4884045;29;20467;-87
2021/03/08 01:22:42;;;;;;;15.32;6.43;;;-3.40;78.20;;;;;;4883833;29;20051;-88
2021/03/08 01:28:31;;;;;;;18.92;7.40;;;-3.40;78.40;;;;;;4883940;29;20101;-87
2021/03/08 01:34:20;;;;;;;10.93;5.68;;;-3.40;78.50;;;;;;4884436;29;20120;-87
2021/03/08 01:40:14;;;;;;;14.90;6.25;;;-3.50;78.40;;;;;;4883792;29;20035;-87
2021/03/08 01:46:03;;;;;;;18.83;7.07;;;-3.50;78.40;;;;;;4884302;29;20115;-87
2021/03/08 01:51:51;;;;;;;14.52;6.03;;;-3.60;78.50;;;;;;4883956;29;20084;-87
2021/03/08 01:57:40;;;;;;;16.17;6.72;;;-3.60;78.40;;;;;;4884258;29;20033;-87
2021/03/08 02:03:29;;;;;;;14.07;6.55;;;-3.60;78.40;;;;;;4884292;29;20053;-88
2021/03/08 02:09:17;;;;;;;15.50;6.75;;;-3.60;78.50;;;;;;4884170;29;20047;-88
2021/03/08 02:19:03;;;;;;;13.32;6.43;;;-3.70;78.40;;;;;;4884130;29;20093;-89
2021/03/08 02:25:28;;;;;;;13.13;6.78;;;-3.80;78.40;;;;;;4883580;29;20116;-88
2021/03/08 02:31:20;;;;;;;15.07;6.32;;;-3.80;78.40;;;;;;4882512;29;20052;-88
2021/03/08 02:37:31;;;;;;;14.35;6.38;;;-3.90;78.30;;;;;;4882981;29;20509;-88
2021/03/08 02:43:58;;;;;;;14.75;6.70;;;-3.90;78.40;;;;;;4882628;29;20048;-82
2021/03/08 02:49:52;;;;;;;14.40;6.25;;;-4.00;78.30;;;;;;4882090;29;20043;-86
2021/03/08 02:55:52;;;;;;;14.45;6.00;;;-4.00;78.40;;;;;;4882111;29;20036;-86
2021/03/08 03:01:43;;;;;;;17.30;6.05;;;-4.10;78.30;;;;;;4882337;29;20489;-89
2021/03/08 03:07:33;;;;;;;13.07;5.65;;;-4.10;78.30;;;;;;4881942;29;20040;-87
2021/03/08 03:13:23;;;;;;;13.45;6.47;;;-4.10;78.40;;;;;;4881737;29;20125;-87
2021/03/08 03:19:12;;;;;;;12.82;5.88;;;-4.20;78.20;;;;;;4882013;29;20092;-87
2021/03/08 03:25:02;;;;;;;14.55;6.78;;;-4.20;78.40;;;;;;4881813;29;20040;-88
2021/03/08 03:30:51;;;;;;;14.85;5.97;;;-4.20;78.40;;;;;;4881819;29;20089;-88
2021/03/08 03:36:41;;;;;;;17.23;7.25;;;-4.30;78.50;;;;;;4882137;29;20096;-87
2021/03/08 03:42:29;;;;;;;13.80;6.10;;;-4.30;78.20;;;;;;4881522;29;20036;-87
2021/03/08 03:48:18;;;;;;;14.55;6.82;;;-4.40;78.10;;;;;;4881977;29;20056;-87
2021/03/08 03:54:06;;;;;;;16.00;6.72;;;-4.40;78.30;;;;;;4882525;29;20398;-87
2021/03/08 03:59:56;;;;;;;18.38;6.88;;;-4.40;78.30;;;;;;4883123;29;20036;-86
2021/03/08 04:05:44;;;;;;;14.25;6.05;;;-4.50;78.30;;;;;;4881357;29;20181;-88
2021/03/08 04:11:35;;;;;;;15.85;5.97;;;-4.50;78.50;;;;;;4881925;29;20133;-88
2021/03/08 04:21:27;;;;;;;14.57;7.10;;;-4.60;78.10;;;;;;4881738;29;20100;-88
2021/03/08 04:27:17;;;;;;;12.13;5.18;;;-4.70;78.30;;;;;;4882739;29;20040;-90
2021/03/08 04:33:06;;;;;;;17.60;8.30;;;-4.70;78.30;;;;;;4880389;29;20489;-86
2021/03/08 04:38:55;;;;;;;14.55;6.20;;;-4.70;78.40;;;;;;4880532;29;20382;-87
2021/03/08 04:44:46;;;;;;;12.73;5.63;;;-4.80;78.10;;;;;;4880395;29;20530;-86
2021/03/08 04:50:36;;;;;;;16.92;6.85;;;-4.80;78.20;;;;;;4880310;29;20052;-87
2021/03/08 04:56:24;;;;;;;14.80;6.65;;;-4.80;78.30;;;;;;4879992;29;20061;-87
2021/03/08 05:02:15;;;;;;;13.90;6.45;;;-4.80;78.30;;;;;;4880216;29;20043;-87
2021/03/08 05:08:10;;;;;;;12.93;6.95;;;-4.90;78.30;;;;;;4880468;29;20100;-90
2021/03/08 05:14:03;;;;;;;11.10;5.30;;;-4.90;78.40;;;;;;4880421;29;20033;-90
2021/03/08 05:23:53;;;;;;;13.40;5.80;;;-4.90;78.20;;;;;;4880410;29;20047;-89
2021/03/08 05:29:44;;;;;;;17.35;6.85;;;-5.00;78.40;;;;;;4879863;29;20044;-88
2021/03/08 05:35:34;;;;;;;12.65;5.63;;;-5.00;78.30;;;;;;4880343;29;20061;-89
2021/03/08 05:41:32;;;;;;;16.02;7.13;;;-5.10;78.10;;;;;;4880918;29;20036;-89
2021/03/08 05:47:46;;;;;;;14.43;6.15;;;-5.10;78.30;;;;;;4880402;29;20119;-90
2021/03/08 05:54:00;;;;;;;12.27;5.90;;;-5.10;78.40;;;;;;4884075;29;20072;-88
2021/03/08 05:59:49;;;;;;;16.83;6.35;;;-5.10;78.40;;;;;;4883625;29;20109;-88
2021/03/08 06:05:43;;;;;;;17.75;7.47;;;-5.00;78.70;;;;;;4883029;29;20103;-88
2021/03/08 06:11:33;;;;;;;13.63;6.43;;;-5.00;78.70;;;;;;4883456;29;20508;-89
2021/03/08 06:17:22;;;;;;;16.90;6.70;;;-4.90;78.80;;;;;;4886553;29;20434;-84
2021/03/08 06:27:13;;;;;;;19.10;8.52;;;-4.70;79.30;;;;;;4882749;29;20048;-84
2021/03/08 06:33:02;;;;;;;16.00;7.65;;;-4.50;79.70;;;;;;4882658;29;20562;-85
2021/03/08 06:38:54;;;;;;;15.70;7.32;;;-4.30;79.80;;;;;;4882214;29;20077;-84
2021/03/08 06:44:48;;;;;;;14.82;6.30;;;-4.10;79.60;;;;;;4882646;29;20056;-85
2021/03/08 06:50:38;;;;;;;13.63;6.38;;;-4.00;79.60;;;;;;4881978;29;20451;-85
2021/03/08 06:56:27;;;;;;;15.50;7.38;;;-3.70;80.90;;;;;;4882078;29;20056;-83
2021/03/08 07:05:41;;;;;;;23.25;10.18;;;-2.90;81.50;;;;;;4882013;29;20478;-85
2021/03/08 07:11:30;;;;;;;15.57;8.57;;;-2.40;81.90;;;;;;4881817;29;20496;-84
2021/03/08 07:17:34;;;;;;;18.17;8.50;;;-1.90;82.00;;;;;;4881941;29;20583;-87
2021/03/08 07:26:57;;;;;;;13.35;7.22;;;-1.50;81.20;;;;;;4881638;29;20072;-85
2021/03/08 07:32:52;;;;;;;20.73;9.23;;;-1.30;81.20;;;;;;4881256;29;20048;-86
2021/03/08 07:38:41;;;;;;;18.23;10.32;;;-1.00;81.80;;;;;;4881439;29;20028;-87
2021/03/08 07:44:31;;;;;;;18.10;8.82;;;-0.60;82.20;;;;;;4881147;29;20043;-86
2021/03/08 07:50:28;;;;;;;17.75;8.75;;;-0.30;81.80;;;;;;4881376;29;20558;-86
2021/03/08 07:56:16;;;;;;;17.40;8.25;;;0.00;81.90;;;;;;4881043;29;20129;-84
2021/03/08 08:02:04;;;;;;;16.25;7.85;;;0.30;82.00;;;;;;4881327;29;20191;-86
2021/03/08 08:07:57;;;;;;;18.58;9.65;;;0.60;82.10;;;;;;4881546;29;20075;-86
2021/03/08 08:13:52;;;;;;;16.92;8.07;;;0.90;82.20;;;;;;4880691;29;20044;-85
2021/03/08 08:19:51;;;;;;;15.40;8.20;;;1.10;81.50;;;;;;4880637;29;20039;-85
2021/03/08 08:29:29;;;;;;;14.75;7.38;;;0.90;80.90;;;;;;4880199;29;20059;-83
2021/03/08 08:35:25;;;;;;;15.30;7.78;;;1.00;81.60;;;;;;4880177;29;20031;-84
2021/03/08 08:41:25;;;;;;;18.20;8.35;;;1.10;81.50;;;;;;4880341;29;20040;-86
2021/03/08 08:47:19;;;;;;;16.80;8.88;;;1.20;81.60;;;;;;4880256;29;20478;-85
2021/03/08 08:53:08;;;;;;;14.07;6.97;;;1.40;82.00;;;;;;4880190;29;20039;-86
2021/03/08 08:58:56;;;;;;;16.52;7.82;;;1.60;82.10;;;;;;4880477;29;20080;-88
2021/03/08 09:04:45;;;;;;;18.17;9.23;;;1.90;82.30;;;;;;4880309;29;20056;-87
2021/03/08 09:10:36;;;;;;;15.65;8.65;;;2.20;82.40;;;;;;4879988;29;20438;-84
2021/03/08 09:16:41;;;;;;;14.15;7.00;;;2.40;82.40;;;;;;4879973;29;20097;-84
2021/03/08 09:22:32;;;;;;;11.75;6.07;;;2.70;82.50;;;;;;4880429;29;20656;-83
2021/03/08 09:32:21;;;;;;;13.98;6.93;;;3.50;83.90;;;;;;4883528;29;20128;-84
2021/03/08 09:38:31;;;;;;;11.32;5.82;;;4.40;85.00;;;;;;4883248;29;20040;-82
2021/03/08 09:44:19;;;;;;;14.85;6.25;;;5.20;84.50;;;;;;4883340;29;20096;-84
2021/03/08 09:50:09;;;;;;;11.32;5.60;;;5.90;84.70;;;;;;4883283;29;20501;-85
2021/03/08 09:56:06;;;;;;;10.30;5.15;;;6.50;84.40;;;;;;4883175;29;20120;-85
2021/03/08 10:01:55;;;;;;;9.98;4.70;;;7.10;84.90;;;;;;4882765;29;20068;-84
2021/03/08 10:07:56;;;;;;;10.95;4.70;;;8.00;85.30;;;;;;4882554;29;20497;-85
2021/03/08 10:13:45;;;;;;;8.95;4.28;;;8.50;84.10;;;;;;4882890;29;20040;-85
2021/03/08 10:19:35;;;;;;;9.80;4.70;;;8.90;83.90;;;;;;4882732;29;20128;-87
2021/03/08 10:25:28;;;;;;;11.15;5.20;;;9.10;82.80;;;;;;4882369;29;20177;-87
2021/03/08 10:35:17;;;;;;;11.10;5.22;;;9.50;83.10;;;;;;4881793;29;20501;-86
2021/03/08 10:41:07;;;;;;;11.43;4.75;;;10.00;83.70;;;;;;4882359;29;20069;-87
2021/03/08 10:46:56;;;;;;;11.32;4.82;;;10.90;84.60;;;;;;4882207;29;20484;-87
2021/03/08 10:53:03;;;;;;;8.38;3.88;;;11.50;83.80;;;;;;4882206;29;20044;-85
2021/03/08 10:58:56;;;;;;;9.23;4.28;;;12.00;82.60;;;;;;4882099;29;20032;-87
2021/03/08 11:04:47;;;;;;;9.50;4.30;;;12.50;84.30;;;;;;4883180;29;20093;-87
2021/03/08 11:10:37;;;;;;;9.80;5.00;;;13.10;83.40;;;;;;4882152;29;20100;-87
2021/03/08 11:16:27;;;;;;;9.27;4.80;;;13.30;82.20;;;;;;4881972;29;20060;-86
2021/03/08 11:22:14;;;;;;;8.20;3.88;;;13.60;83.50;;;;;;4884156;29;20521;-86
2021/03/08 11:28:15;;;;;;;10.55;4.13;;;14.20;82.50;;;;;;4881509;29;20060;-88
2021/03/08 11:38:10;;;;;;;9.43;4.30;;;14.50;83.10;;;;;;4881676;29;20089;-85
2021/03/08 11:43:59;;;;;;;9.10;3.97;;;14.50;80.90;;;;;;4881368;29;20052;-84
2021/03/08 11:49:48;;;;;;;8.65;4.07;;;14.80;81.90;;;;;;4881327;29;20044;-84
2021/03/08 11:55:36;;;;;;;9.00;4.32;;;14.60;79.70;;;;;;4881324;29;20043;-83
2021/03/08 12:01:25;;;;;;;9.75;4.85;;;14.90;80.90;;;;;;4881133;29;20084;-84
2021/03/08 12:07:13;;;;;;;8.95;4.28;;;14.20;79.00;;;;;;4880817;29;20059;-84
2021/03/08 12:13:02;;;;;;;14.23;4.18;;;13.90;79.70;;;;;;4880505;29;20040;-85
2021/03/08 12:18:51;;;;;;;8.32;3.33;;;14.40;81.60;;;;;;4880951;29;20112;-86
2021/03/08 12:24:39;;;;;;;9.27;4.22;;;14.90;79.00;;;;;;4881727;29;20080;-84
2021/03/08 12:30:29;;;;;;;9.18;4.22;;;15.00;79.90;;;;;;4880583;29;20520;-83
2021/03/08 12:40:21;;;;;;;9.25;4.05;;;15.50;80.80;;;;;;4880503;29;20056;-85
2021/03/08 12:46:11;;;;;;;8.63;4.07;;;15.90;78.50;;;;;;4880283;29;20092;-84
2021/03/08 12:52:00;;;;;;;9.23;3.83;;;16.10;79.10;;;;;;4879995;29;20032;-84
2021/03/08 12:57:48;;;;;;;6.90;3.15;;;16.30;78.80;;;;;;4879858;29;20044;-87
2021/03/08 13:03:36;;;;;;;7.97;3.30;;;16.50;77.10;;;;;;4879889;29;20522;-83
2021/03/08 13:09:26;;;;;;;7.45;3.20;;;16.20;76.10;;;;;;4879760;29;20083;-85
2021/03/08 13:15:15;;;;;;;8.30;3.60;;;15.90;75.20;;;;;;4880014;29;20060;-85
2021/03/08 13:21:04;;;;;;;9.65;3.75;;;15.60;76.30;;;;;;4879966;29;20036;-84
2021/03/08 13:26:53;;;;;;;7.55;3.33;;;15.70;75.80;;;;;;4879680;29;20072;-84
2021/03/08 13:32:41;;;;;;;10.82;4.15;;;15.80;76.60;;;;;;4879681;29;20096;-85
2021/03/08 13:42:25;;;;;;;8.23;3.72;;;15.70;77.00;;;;;;4879985;29;20071;-83
2021/03/08 13:48:13;;;;;;;8.68;4.10;;;15.90;76.50;;;;;;4881049;29;20048;-83
2021/03/08 13:54:02;;;;;;;14.15;5.03;;;16.00;76.00;;;;;;4879888;29;20044;-84
2021/03/08 13:59:50;;;;;;;8.13;3.35;;;16.10;74.50;;;;;;4879592;29;20124;-84
2021/03/08 14:05:39;;;;;;;8.80;3.63;;;15.60;72.60;;;;;;4879660;29;20105;-83
2021/03/08 14:11:27;;;;;;;8.52;3.55;;;15.20;73.50;;;;;;4882650;29;20028;-83
2021/03/08 14:17:15;;;;;;;10.70;4.18;;;14.80;73.60;;;;;;4882806;29;20040;-83
2021/03/08 14:23:04;;;;;;;9.02;3.80;;;14.70;74.00;;;;;;4883328;29;20470;-83
2021/03/08 14:28:53;;;;;;;9.13;3.42;;;14.70;74.00;;;;;;4882763;29;20070;-86
2021/03/08 14:34:44;;;;;;;10.75;4.47;;;14.50;73.20;;;;;;4882729;29;20488;-83
2021/03/08 14:44:26;;;;;;;12.75;4.40;;;13.80;71.90;;;;;;4882569;29;20173;-83
2021/03/08 14:50:19;;;;;;;9.05;4.20;;;13.30;72.20;;;;;;4882214;29;20508;-83
2021/03/08 14:56:08;;;;;;;11.05;3.90;;;13.00;71.90;;;;;;4882248;29;20036;-86
2021/03/08 15:01:57;;;;;;;10.70;3.92;;;12.60;71.30;;;;;;4882066;29;20450;-86
2021/03/08 15:07:45;;;;;;;9.80;3.75;;;12.00;71.40;;;;;;4881939;29;20060;-83
2021/03/08 15:13:35;;;;;;;9.88;3.83;;;11.70;71.90;;;;;;4881818;29;20067;-84
2021/03/08 15:19:25;;;;;;;8.90;4.10;;;11.70;72.00;;;;;;4881634;29;20112;-84
2021/03/08 15:25:14;;;;;;;8.77;3.60;;;11.40;71.00;;;;;;4881482;29;20047;-83
2021/03/08 15:31:02;;;;;;;10.63;4.70;;;11.10;70.50;;;;;;4881749;29;20085;-84
2021/03/08 15:36:51;;;;;;;9.10;3.72;;;10.90;70.70;;;;;;4881762;29;20043;-84
2021/03/08 15:46:32;;;;;;;7.82;3.20;;;10.70;71.50;;;;;;4882389;29;20060;-85
2021/03/08 15:52:20;;;;;;;10.30;4.82;;;10.60;71.10;;;;;;4881597;29;20132;-85
2021/03/08 15:58:09;;;;;;;9.30;4.30;;;10.20;69.70;;;;;;4880969;29;20040;-85
2021/03/08 16:03:58;;;;;;;10.77;4.53;;;9.80;69.60;;;;;;4880822;29;20040;-85
2021/03/08 16:09:47;;;;;;;15.20;7.53;;;9.50;70.20;;;;;;4882919;29;20076;-88
2021/03/08 16:15:36;;;;;;;10.23;4.43;;;9.20;69.60;;;;;;4902392;29;20040;-93
2021/03/08 16:21:24;;;;;;;9.48;4.20;;;9.00;70.30;;;;;;4892085;29;20048;-95
2021/03/08 16:27:13;;;;;;;8.88;4.53;;;8.80;70.00;;;;;;4891657;29;20043;-93
2021/03/08 16:33:02;;;;;;;9.95;4.18;;;8.60;69.70;;;;;;4888549;29;20497;-95
2021/03/08 16:38:51;;;;;;;11.15;5.18;;;8.40;69.80;;;;;;4883432;29;20035;-94
2021/03/08 16:48:40;;;;;;;9.48;4.57;;;8.00;69.80;;;;;;4882675;29;20056;-94
2021/03/08 16:54:29;;;;;;;10.85;5.78;;;7.90;69.90;;;;;;4880507;29;20040;-89
2021/03/08 17:00:18;;;;;;;12.90;4.68;;;7.60;69.00;;;;;;4880948;29;20108;-87
2021/03/08 17:06:07;;;;;;;10.43;4.55;;;7.40;69.60;;;;;;4880136;29;20092;-88
2021/03/08 17:11:56;;;;;;;11.23;5.13;;;7.30;69.70;;;;;;4880358;29;20063;-87
2021/03/08 17:17:48;;;;;;;12.13;4.80;;;7.20;69.60;;;;;;4880189;29;20085;-87
2021/03/08 17:23:36;;;;;;;11.38;5.22;;;7.10;69.70;;;;;;4880725;29;20504;-93
2021/03/08 17:29:24;;;;;;;11.75;5.05;;;7.00;69.80;;;;;;4880917;29;20083;-91
2021/03/08 17:35:13;;;;;;;10.57;4.88;;;6.90;69.50;;;;;;4881267;29;20032;-92
2021/03/08 17:41:02;;;;;;;12.40;5.55;;;6.90;70.00;;;;;;4881062;29;20505;-92
2021/03/08 17:50:46;;;;;;;11.73;5.18;;;6.80;69.80;;;;;;4887455;29;20112;-89
2021/03/08 17:56:35;;;;;;;12.73;5.25;;;6.60;69.70;;;;;;4886527;29;20505;-91
2021/03/08 18:02:24;;;;;;;12.93;5.28;;;6.60;69.90;;;;;;4885217;29;20127;-90
2021/03/08 18:08:13;;;;;;;11.93;5.38;;;6.50;69.90;;;;;;4884025;29;20036;-90
2021/03/08 18:14:01;;;;;;;10.57;4.78;;;6.40;69.70;;;;;;4884395;29;20044;-90
2021/03/08 18:19:50;;;;;;;9.75;5.10;;;6.40;69.80;;;;;;4883374;29;20065;-89
2021/03/08 18:25:39;;;;;;;16.55;5.55;;;6.30;69.50;;;;;;4884099;29;20040;-90
2021/03/08 18:31:27;;;;;;;11.88;5.40;;;6.20;69.80;;;;;;4883152;29;20047;-88
2021/03/08 18:37:16;;;;;;;14.23;5.43;;;6.10;69.80;;;;;;4884229;29;20157;-89
2021/03/08 18:43:04;;;;;;;19.48;7.35;;;6.10;70.00;;;;;;4884379;29;20550;-88
2021/03/08 18:52:48;;;;;;;12.43;5.90;;;6.00;69.70;;;;;;4883369;29;20121;-86
2021/03/08 18:58:36;;;;;;;10.73;4.80;;;5.90;69.80;;;;;;4883676;29;20079;-90
2021/03/08 19:04:28;;;;;;;12.15;5.60;;;5.80;70.00;;;;;;4883005;29;20394;-86
2021/03/08 19:10:17;;;;;;;10.57;4.60;;;5.80;69.90;;;;;;4882029;29;20054;-88
2021/03/08 19:16:06;;;;;;;10.85;4.75;;;5.70;69.90;;;;;;4882170;29;20040;-86
2021/03/08 19:21:55;;;;;;;11.85;5.18;;;5.70;69.90;;;;;;4886160;29;20048;-91
2021/03/08 19:27:44;;;;;;;11.57;5.10;;;5.70;69.90;;;;;;4886464;29;20040;-90
2021/03/08 19:33:33;;;;;;;10.88;5.00;;;5.60;70.10;;;;;;4886218;29;20077;-91
2021/03/08 19:39:23;;;;;;;11.45;4.90;;;5.50;69.90;;;;;;4885821;29;20072;-92
2021/03/08 19:45:14;;;;;;;11.80;4.95;;;5.50;70.00;;;;;;4885222;29;20044;-91
2021/03/08 19:54:57;;;;;;;9.95;4.80;;;5.40;70.00;;;;;;4884332;29;20073;-92
2021/03/08 20:00:45;;;;;;;12.38;5.05;;;5.30;70.00;;;;;;4884564;29;20053;-92
2021/03/08 20:06:34;;;;;;;11.48;5.25;;;5.20;69.70;;;;;;4883897;29;20039;-92
2021/03/08 20:12:24;;;;;;;15.88;6.47;;;5.10;69.70;;;;;;4885767;29;20092;-92
2021/03/08 20:18:11;;;;;;;13.15;5.80;;;4.90;69.50;;;;;;4886124;29;20047;-93
2021/03/08 20:24:00;;;;;;;12.30;5.45;;;4.80;69.40;;;;;;4884960;29;20059;-93
2021/03/08 20:29:49;;;;;;;12.40;5.38;;;4.50;69.10;;;;;;4884180;29;20048;-90
2021/03/08 20:35:37;;;;;;;12.18;5.38;;;4.30;69.60;;;;;;4886647;29;20059;-92
2021/03/08 20:41:27;;;;;;;11.93;5.05;;;4.20;69.10;;;;;;4897793;29;20072;-91
2021/03/08 20:47:16;;;;;;;11.95;5.28;;;3.90;68.90;;;;;;4883799;29;20032;-91
2021/03/08 20:57:01;;;;;;;11.88;5.85;;;3.50;68.90;;;;;;4891584;29;20505;-95
2021/03/08 21:02:50;;;;;;;15.48;5.70;;;3.30;68.90;;;;;;4885316;29;20058;-91
2021/03/08 21:08:39;;;;;;;12.55;5.95;;;3.10;68.90;;;;;;4887179;29;20052;-93
2021/03/08 21:14:27;;;;;;;15.32;5.63;;;2.90;68.90;;;;;;4904159;29;20032;-90
2021/03/08 21:20:18;;;;;;;12.77;5.63;;;2.70;68.90;;;;;;4889272;29;20036;-90
2021/03/08 21:26:06;;;;;;;13.10;5.72;;;2.50;68.80;;;;;;4892576;29;20064;-91
2021/03/08 21:31:55;;;;;;;11.45;5.55;;;2.40;68.80;;;;;;4895527;29;20064;-92
2021/03/08 21:37:45;;;;;;;15.48;5.13;;;2.20;68.80;;;;;;4891605;29;20036;-90
2021/03/08 21:43:36;;;;;;;12.13;5.53;;;2.00;68.80;;;;;;4893095;29;20029;-93
2021/03/08 21:49:28;;;;;;;11.80;5.40;;;1.80;68.80;;;;;;4893352;29;20060;-95
2021/03/08 21:59:16;;;;;;;11.48;4.75;;;1.50;68.50;;;;;;4901654;29;20049;-94
2021/03/08 22:05:09;;;;;;;12.68;5.22;;;1.40;68.90;;;;;;4904150;29;20093;-92
2021/03/08 22:10:58;;;;;;;13.00;5.93;;;1.20;68.70;;;;;;4901077;29;20051;-91
2021/03/08 22:16:47;;;;;;;14.70;5.85;;;1.10;68.80;;;;;;4893817;29;20040;-93
2021/03/08 22:23:13;;;;;;;14.40;6.22;;;1.00;68.70;;;;;;4907232;29;20020;-84
2021/03/08 22:29:12;;;;;;;14.05;6.00;;;0.80;68.80;;;;;;4899511;29;20077;-94
2021/03/08 22:35:01;;;;;;;11.50;4.70;;;0.60;68.70;;;;;;4888931;29;20546;-92
2021/03/08 22:40:51;;;;;;;15.63;5.95;;;0.50;68.80;;;;;;4887648;29;20136;-93
2021/03/08 22:46:40;;;;;;;12.43;5.25;;;0.40;68.70;;;;;;4887531;29;20028;-94
2021/03/08 22:52:29;;;;;;;16.40;5.70;;;0.30;68.70;;;;;;4889601;29;20112;-95
2021/03/08 23:02:20;;;;;;;19.52;7.45;;;0.10;68.70;;;;;;4886108;29;20093;-92
2021/03/08 23:08:09;;;;;;;16.60;6.40;;;-0.10;68.70;;;;;;4887092;29;20040;-94
2021/03/08 23:13:57;;;;;;;12.75;5.82;;;-0.20;68.80;;;;;;4886862;29;20048;-94
2021/03/08 23:20:20;;;;;;;15.35;7.05;;;-0.30;68.70;;;;;;4884577;29;20040;-94
2021/03/08 23:26:09;;;;;;;17.63;6.57;;;-0.40;68.70;;;;;;4906137;29;20089;-90
2021/03/08 23:31:58;;;;;;;15.27;5.85;;;-0.60;68.70;;;;;;4885563;29;20065;-93
2021/03/08 23:37:47;;;;;;;14.90;6.47;;;-0.70;68.70;;;;;;4895519;29;20040;-93
2021/03/08 23:43:36;;;;;;;13.13;6.15;;;-0.80;68.80;;;;;;4887686;29;20044;-90
2021/03/08 23:49:25;;;;;;;12.38;5.53;;;-0.90;68.80;;;;;;4882469;29;20044;-91
2021/03/08 23:55:14;;;;;;;14.23;5.63;;;;;;;;;;4882781;29;20076;-90
